Portada
METAR-TAF:

METAR-TAF

Aeropuertos :

Bou Saâda, Argelia

latitud: 35-20N, longitud: 004-12E, altitud: 461 m

Observación

El informe se hizo hace 3 horas y 58 minutos, a las 18:00 UTC
Viento 3 kt del sur
Temperatura 23°C
Humedad 41%
Presión 1019 hPa
Visibilidad 10 km o más
Escasas nubes a una altura de 3000 ft

METAR: DAAD 161800Z 17003KT 9999 FEW030 23/09 Q1019

Hora: 22:58 (21:58 UTC)

Pronóstico

El informe se hizo hace 4 horas y 58 minutos, a las 17:00 UTC
Pronóstico válido del 16 a las 18 UTC al 17 a las 03 UTC
Viento 8 kt del este
Visibilidad 10 km o más
Escasas nubes a una altura de 3000 ft
Probabilidad 30% :
Temporalmente
del 16 a las 18 UTC al 16 a las 21 UTC
Escasas nubes a una altura de 3300 ft, Cumulus congestus.

TAF: DAAD 161700Z 1618/1703 08008KT 9999 FEW030 PROB30 TEMPO 1618/1621 FEW033TCU

Observaciones y pronósticos meteorológicos de más de 4000 aeropuertos (mensajes METAR y TAF).

Los puntos amarillos y rojos representan las estaciones disponibles.

Ponga el ratón en el punto deseado para ver el nombre de la estación.

Haga clic para ver las observaciones y los pronósticos meteorológicos.

Para cambiar el mapa : haga clic en los botones verdes con una cruz de color negro para hacer un zoom, en el botón verde con un guión para alejar o en las flechas verdes para mapas adyacentes.


METAR-TAF: